Time;durP1;ratioP1;P1;durP2;ratioP2;P2;SDS_P1;SDS_P2;PMS_P1;PMS_P2;Temp;Humidity;BMP_temperature;BMP_pressure;BME280_temperature;BME280_humidity;BME280_pressure;Samples;Min_cycle;Max_cycle;Signal;HPM_P1;HPM_P2
2022/11/30 00:02:06;;;;;;;;;;;;;;;5.20;98.85;99720.72;10212316;23;19924;-75
2022/11/30 00:06:12;;;;;;;;;;;;;;;5.17;98.92;99718.09;10222018;23;19975;-75
2022/11/30 00:10:16;;;;;;;;;;;;;;;5.11;99.26;99712.81;10218443;23;19952;-76
2022/11/30 00:14:19;;;;;;;;;;;;;;;5.04;99.22;99713.50;10192061;23;19924;-75
2022/11/30 00:18:21;;;;;;;;;;;;;;;4.97;99.15;99712.47;10217189;23;19928;-75
2022/11/30 00:22:23;;;;;;;;;;;;;;;4.90;99.17;99717.47;10198242;23;19969;-75
2022/11/30 00:26:25;;;;;;;;;;;;;;;4.87;99.57;99710.56;10219947;23;20002;-75
2022/11/30 00:30:30;;;;;;;;;;;;;;;4.77;99.50;99719.75;10193598;23;19924;-75
2022/11/30 00:34:33;;;;;;;;;;;;;;;4.74;99.90;99716.22;10191484;23;19924;-75
2022/11/30 00:38:35;;;;;;;;;;;;;;;4.75;100.00;99712.81;10150029;23;19936;-75
2022/11/30 00:42:36;;;;;;;;;;;;;;;4.76;100.00;99715.44;10172865;23;19960;-75
2022/11/30 00:46:38;;;;;;;;;;;;;;;4.65;99.94;99709.16;10174263;23;20450;-76
2022/11/30 00:50:46;;;;;;;;;;;;;;;4.66;100.00;99716.03;10169607;23;20437;-75
2022/11/30 00:54:50;;;;;;;;;;;;;;;4.71;100.00;99709.31;10195810;23;20003;-75
2022/11/30 00:58:52;;;;;;;;;;;;;;;4.77;100.00;99711.16;10194502;23;20727;-75
2022/11/30 01:02:55;;;;;;;;;;;;;;;4.82;100.00;99714.69;10213656;23;19935;-75
2022/11/30 01:06:57;;;;;;;;;;;;;;;4.85;100.00;99710.50;10221353;23;20003;-75
2022/11/30 01:11:12;;;;;;;;;;;;;;;4.87;100.00;99712.25;10218912;23;19935;-75
2022/11/30 01:15:15;;;;;;;;;;;;;;;4.86;100.00;99713.97;10212258;23;19924;-75
2022/11/30 01:19:22;;;;;;;;;;;;;;;4.87;100.00;99707.97;10195629;23;20007;-75
2022/11/30 01:23:24;;;;;;;;;;;;;;;4.90;100.00;99709.75;10220140;23;19935;-75
2022/11/30 01:27:25;;;;;;;;;;;;;;;4.95;100.00;99710.72;10220693;23;19940;-75
2022/11/30 01:31:30;;;;;;;;;;;;;;;4.88;100.00;99708.84;10187977;23;19924;-75
2022/11/30 01:35:31;;;;;;;;;;;;;;;4.88;100.00;99717.44;10220362;23;19928;-75
2022/11/30 01:39:33;;;;;;;;;;;;;;;4.89;100.00;99716.59;10223101;23;19924;-74
2022/11/30 01:43:42;;;;;;;;;;;;;;;4.93;100.00;99710.69;10215135;23;20398;-76
2022/11/30 01:47:49;;;;;;;;;;;;;;;4.97;100.00;99704.75;10217381;23;19982;-75
2022/11/30 01:52:01;;;;;;;;;;;;;;;5.04;100.00;99708.38;10221730;23;19924;-75
2022/11/30 01:56:05;;;;;;;;;;;;;;;5.05;100.00;99704.97;10197395;23;20524;-75
2022/11/30 02:00:09;;;;;;;;;;;;;;;5.05;100.00;99712.69;10212902;23;19920;-75
2022/11/30 02:04:33;;;;;;;;;;;;;;;5.03;100.00;99714.34;10212860;23;19924;-75
2022/11/30 02:08:36;;;;;;;;;;;;;;;4.96;100.00;99715.91;10220522;23;19987;-75
2022/11/30 02:12:46;;;;;;;;;;;;;;;4.91;100.00;99719.22;10219351;23;19931;-75
2022/11/30 02:17:17;;;;;;;;;;;;;;;4.90;100.00;99715.75;10214250;23;20571;-75
2022/11/30 02:21:34;;;;;;;;;;;;;;;4.96;100.00;99712.44;10220441;23;19928;-75
2022/11/30 02:25:56;;;;;;;;;;;;;;;4.98;100.00;99711.66;10196680;23;19924;-75
2022/11/30 02:30:05;;;;;;;;;;;;;;;4.99;100.00;99715.97;10216253;23;19928;-75
2022/11/30 02:34:12;;;;;;;;;;;;;;;5.00;100.00;99711.69;10219004;23;19999;-76
2022/11/30 02:38:17;;;;;;;;;;;;;;;4.98;100.00;99714.22;10221174;23;20382;-75
2022/11/30 02:42:19;;;;;;;;;;;;;;;5.01;100.00;99722.00;10221911;23;19932;-75
2022/11/30 02:46:30;;;;;;;;;;;;;;;5.00;100.00;99720.28;10211566;23;20314;-75
2022/11/30 02:50:38;;;;;;;;;;;;;;;5.01;100.00;99714.28;10220265;23;20215;-73
2022/11/30 02:54:40;;;;;;;;;;;;;;;5.03;100.00;99715.22;10220568;23;20584;-75
2022/11/30 02:58:45;;;;;;;;;;;;;;;5.07;100.00;99724.75;10194623;23;20003;-76
2022/11/30 03:02:53;;;;;;;;;;;;;;;5.10;100.00;99717.09;10214066;23;19924;-75
2022/11/30 03:06:55;;;;;;;;;;;;;;;5.15;100.00;99717.19;10228447;23;20003;-75
2022/11/30 03:11:00;;;;;;;;;;;;;;;5.17;100.00;99718.09;10228402;23;19924;-76
2022/11/30 03:15:01;;;;;;;;;;;;;;;5.19;100.00;99723.25;10227685;23;19955;-76
2022/11/30 03:19:03;;;;;;;;;;;;;;;5.23;100.00;99725.97;10204100;23;20007;-76
2022/11/30 03:23:04;;;;;;;;;;;;;;;5.23;100.00;99731.09;10227833;23;19979;-76
2022/11/30 03:27:05;;;;;;;;;;;;;;;5.26;100.00;99727.72;10205081;23;19924;-76
2022/11/30 03:31:10;;;;;;;;;;;;;;;5.31;100.00;99734.72;10221762;23;19943;-76
2022/11/30 03:35:11;;;;;;;;;;;;;;;5.30;100.00;99730.41;10203720;23;19935;-76
2022/11/30 03:39:12;;;;;;;;;;;;;;;5.34;100.00;99732.19;10230852;23;20461;-76
2022/11/30 03:43:14;;;;;;;;;;;;;;;5.36;100.00;99734.81;10231164;23;19935;-76
2022/11/30 03:47:15;;;;;;;;;;;;;;;5.34;100.00;99737.34;10248302;23;20269;-74
2022/11/30 03:51:17;;;;;;;;;;;;;;;5.36;100.00;99733.09;10230115;23;19963;-74
2022/11/30 03:55:18;;;;;;;;;;;;;;;5.40;100.00;99739.22;10204961;23;20259;-74
2022/11/30 03:59:19;;;;;;;;;;;;;;;5.44;100.00;99739.28;10205070;23;19928;-74
2022/11/30 04:03:21;;;;;;;;;;;;;;;5.49;100.00;99734.25;10195215;23;19924;-74
2022/11/30 04:07:23;;;;;;;;;;;;;;;5.52;100.00;99731.72;10203231;23;19924;-75
2022/11/30 04:11:24;;;;;;;;;;;;;;;5.54;100.00;99735.19;10223947;23;19936;-74
2022/11/30 04:15:26;;;;;;;;;;;;;;;5.56;100.00;99723.22;10240561;23;19932;-74
2022/11/30 04:19:27;;;;;;;;;;;;;;;5.55;100.00;99729.19;10224070;23;20366;-75
2022/11/30 04:23:30;;;;;;;;;;;;;;;5.55;100.00;99731.78;10222347;23;19951;-75
2022/11/30 04:27:31;;;;;;;;;;;;;;;5.54;100.00;99730.03;10224460;23;20006;-74
2022/11/30 04:31:32;;;;;;;;;;;;;;;5.52;100.00;99731.72;10221774;23;20410;-74
2022/11/30 04:35:38;;;;;;;;;;;;;;;5.49;100.00;99728.22;10222980;23;19924;-74
2022/11/30 04:39:39;;;;;;;;;;;;;;;5.48;100.00;99729.94;10222047;23;19962;-74
2022/11/30 04:43:40;;;;;;;;;;;;;;;5.48;100.00;99740.22;10197222;23;19978;-74
2022/11/30 04:47:41;;;;;;;;;;;;;;;5.49;100.00;99735.94;10217276;23;19924;-74
2022/11/30 04:51:43;;;;;;;;;;;;;;;5.49;100.00;99733.38;10223992;23;19924;-74
2022/11/30 04:55:44;;;;;;;;;;;;;;;5.48;100.00;99732.50;10224618;23;19920;-74
2022/11/30 04:59:46;;;;;;;;;;;;;;;5.49;100.00;99734.25;10224600;23;19925;-74
2022/11/30 05:03:47;;;;;;;;;;;;;;;5.48;100.00;99737.66;10214189;23;20006;-74
2022/11/30 05:07:50;;;;;;;;;;;;;;;5.52;100.00;99730.84;10225937;23;19999;-74
2022/11/30 05:11:51;;;;;;;;;;;;;;;5.57;100.00;99737.88;10228631;23;20081;-74
2022/11/30 05:15:53;;;;;;;;;;;;;;;5.61;100.00;99728.47;10225005;23;19971;-74
2022/11/30 05:19:54;;;;;;;;;;;;;;;5.62;100.00;99740.53;10230828;23;19989;-74
2022/11/30 05:23:56;;;;;;;;;;;;;;;5.58;100.00;99734.44;10230678;23;19924;-75
2022/11/30 05:27:58;;;;;;;;;;;;;;;5.57;100.00;99737.00;10233468;23;19997;-74
2022/11/30 05:32:07;;;;;;;;;;;;;;;5.54;100.00;99732.63;10225222;23;19924;-74
2022/11/30 05:36:08;;;;;;;;;;;;;;;5.56;100.00;99742.94;10204608;23;19924;-74
2022/11/30 05:40:11;;;;;;;;;;;;;;;5.56;100.00;99736.09;10235319;23;19935;-74
2022/11/30 05:44:13;;;;;;;;;;;;;;;5.54;100.00;99742.06;10235443;23;19963;-74
2022/11/30 05:48:15;;;;;;;;;;;;;;;5.51;100.00;99742.88;10201685;23;19928;-75
2022/11/30 05:52:16;;;;;;;;;;;;;;;5.50;100.00;99745.41;10235159;23;20252;-74
2022/11/30 05:56:18;;;;;;;;;;;;;;;5.49;100.00;99741.97;10234494;23;19924;-74
2022/11/30 06:00:20;;;;;;;;;;;;;;;5.50;100.00;99750.56;10205743;23;20288;-74
2022/11/30 06:04:22;;;;;;;;;;;;;;;5.51;100.00;99747.16;10211503;23;19988;-74
2022/11/30 06:08:24;;;;;;;;;;;;;;;5.50;100.00;99748.84;10239761;23;19935;-74
2022/11/30 06:12:25;;;;;;;;;;;;;;;5.49;100.00;99751.41;10238746;23;19951;-74
2022/11/30 06:16:26;;;;;;;;;;;;;;;5.47;100.00;99749.66;10223594;23;20020;-74
2022/11/30 06:20:28;;;;;;;;;;;;;;;5.49;100.00;99748.81;10221928;23;19966;-74
2022/11/30 06:24:31;;;;;;;;;;;;;;;5.54;100.00;99748.06;10221208;23;19955;-74
2022/11/30 06:28:33;;;;;;;;;;;;;;;5.58;100.00;99746.47;10223719;23;19932;-74
2022/11/30 06:32:35;;;;;;;;;;;;;;;5.63;100.00;99745.72;10215459;23;19924;-74
2022/11/30 06:36:36;;;;;;;;;;;;;;;5.64;100.00;99741.41;10196594;23;20011;-74
2022/11/30 06:40:39;;;;;;;;;;;;;;;5.66;100.00;99744.91;10224317;23;19924;-74
2022/11/30 06:44:42;;;;;;;;;;;;;;;5.64;100.00;99750.03;10224166;23;19924;-74
2022/11/30 06:48:47;;;;;;;;;;;;;;;5.63;100.00;99748.28;10214349;23;19928;-74
2022/11/30 06:52:52;;;;;;;;;;;;;;;5.63;100.00;99750.84;10222676;23;19924;-74
2022/11/30 06:56:56;;;;;;;;;;;;;;;5.62;100.00;99753.41;10220659;23;20002;-74
2022/11/30 07:01:05;;;;;;;;;;;;;;;5.58;100.00;99759.34;10221585;23;20011;-74
2022/11/30 07:05:07;;;;;;;;;;;;;;;5.55;100.00;99761.81;10230407;23;19928;-74
2022/11/30 07:09:09;;;;;;;;;;;;;;;5.52;100.00;99762.63;10229385;23;19982;-74
2022/11/30 07:13:11;;;;;;;;;;;;;;;5.47;100.00;99765.09;10228820;23;19935;-74
2022/11/30 07:17:12;;;;;;;;;;;;;;;5.42;100.00;99771.00;10207420;23;20409;-74
2022/11/30 07:21:13;;;;;;;;;;;;;;;5.43;100.00;99771.03;10222215;23;19932;-74
2022/11/30 07:29:35;;;;;;;;;;;;;;;5.42;100.00;99771.88;10220577;23;19928;-74
2022/11/30 07:33:36;;;;;;;;;;;;;;;5.50;100.00;99773.75;10210215;23;19935;-74
2022/11/30 07:37:37;;;;;;;;;;;;;;;5.58;100.00;99772.22;10220686;23;19967;-74
2022/11/30 07:41:39;;;;;;;;;;;;;;;5.65;100.00;99771.50;10216947;23;19925;-74
2022/11/30 07:45:41;;;;;;;;;;;;;;;5.67;100.00;99765.53;10208645;23;19928;-74
2022/11/30 07:49:42;;;;;;;;;;;;;;;5.74;100.00;99774.25;10219211;23;19928;-74
2022/11/30 07:53:43;;;;;;;;;;;;;;;5.80;100.00;99779.56;10218462;23;19935;-75
2022/11/30 07:57:45;;;;;;;;;;;;;;;5.83;100.00;99777.03;10220079;23;20501;-74
2022/11/30 08:01:46;;;;;;;;;;;;;;;5.84;100.00;99775.31;10193465;23;19924;-74
2022/11/30 08:05:48;;;;;;;;;;;;;;;5.85;100.00;99777.06;10227556;23;19928;-75
2022/11/30 08:09:50;;;;;;;;;;;;;;;5.88;100.00;99780.56;10227409;23;20007;-74
2022/11/30 08:13:52;;;;;;;;;;;;;;;5.93;100.00;99778.13;10236689;23;19951;-74
2022/11/30 08:17:54;;;;;;;;;;;;;;;5.96;100.00;99783.34;10234185;23;20371;-73
2022/11/30 08:21:55;;;;;;;;;;;;;;;5.98;100.00;99779.09;10215228;23;19920;-74
2022/11/30 08:26:05;;;;;;;;;;;;;;;6.00;100.00;99788.59;10244647;23;19927;-73
2022/11/30 08:30:07;;;;;;;;;;;;;;;6.00;100.00;99787.72;10240450;23;20011;-73
2022/11/30 08:34:10;;;;;;;;;;;;;;;6.05;100.00;99798.97;10219233;23;20003;-74
2022/11/30 08:38:11;;;;;;;;;;;;;;;6.08;100.00;99791.31;10220580;23;19935;-75
2022/11/30 08:42:13;;;;;;;;;;;;;;;6.14;100.00;99793.16;10195431;23;20588;-75
2022/11/30 08:46:15;;;;;;;;;;;;;;;6.21;100.00;99795.00;10212156;23;20560;-75
2022/11/30 08:50:36;;;;;;;;;;;;;;;6.33;100.00;99798.69;10213483;23;19982;-75
2022/11/30 08:54:41;;;;;;;;;;;;;;;6.42;100.00;99794.53;10216306;23;20279;-75
2022/11/30 08:58:43;;;;;;;;;;;;;;;6.50;100.00;99793.84;10211447;23;19929;-75
2022/11/30 09:02:46;;;;;;;;;;;;;;;6.60;100.00;99803.47;10228792;23;20615;-75
2022/11/30 09:06:50;;;;;;;;;;;;;;;6.69;100.00;99807.97;10218570;23;19924;-76
2022/11/30 09:10:51;;;;;;;;;;;;;;;6.76;100.00;99806.34;10243602;23;19943;-74
2022/11/30 09:14:52;;;;;;;;;;;;;;;6.86;100.00;99805.66;10226649;23;20018;-73
2022/11/30 09:18:58;;;;;;;;;;;;;;;6.95;100.00;99809.25;10222973;23;19924;-74
2022/11/30 09:23:00;;;;;;;;;;;;;;;7.06;100.00;99811.16;10204492;23;19924;-74
2022/11/30 09:27:01;;;;;;;;;;;;;;;7.13;100.00;99813.84;10208499;23;20250;-74
2022/11/30 09:31:03;;;;;;;;;;;;;;;7.20;100.00;99820.00;10228599;23;19999;-74
2022/11/30 09:35:04;;;;;;;;;;;;;;;7.27;100.00;99822.69;10234603;23;19924;-74
2022/11/30 09:39:12;;;;;;;;;;;;;;;7.35;100.00;99829.69;10233046;23;19924;-74
2022/11/30 09:43:22;;;;;;;;;;;;;;;7.42;100.00;99828.94;10207461;23;20309;-74
2022/11/30 09:47:27;;;;;;;;;;;;;;;7.44;100.00;99835.88;10230863;23;19940;-74
2022/11/30 09:51:43;;;;;;;;;;;;;;;7.46;100.00;99833.31;10235127;23;19920;-74
2022/11/30 09:55:44;;;;;;;;;;;;;;;7.47;100.00;99825.59;10231894;23;20388;-74
2022/11/30 09:59:56;;;;;;;;;;;;;;;7.51;100.00;99834.25;10258362;23;20002;-74
2022/11/30 10:03:57;;;;;;;;;;;;;;;7.56;99.91;99830.91;10213010;23;19924;-74
2022/11/30 10:08:08;;;;;;;;;;;;;;;7.66;100.00;99823.28;10220805;23;20076;-75
2022/11/30 10:12:16;;;;;;;;;;;;;;;7.69;99.07;99823.31;10220202;23;19931;-74
2022/11/30 10:16:20;;;;;;;;;;;;;;;7.72;99.16;99825.94;10211141;23;19958;-75
2022/11/30 10:20:24;;;;;;;;;;;;;;;7.75;99.04;99816.53;10218954;23;19928;-74
2022/11/30 10:24:38;;;;;;;;;;;;;;;7.81;98.78;99813.16;10218095;23;20006;-75
2022/11/30 10:28:43;;;;;;;;;;;;;;;7.87;98.77;99811.50;10220414;23;19930;-74
2022/11/30 10:33:04;;;;;;;;;;;;;;;7.92;98.38;99809.00;10209516;23;19931;-74
2022/11/30 10:37:14;;;;;;;;;;;;;;;7.97;98.27;99803.88;10220039;23;20019;-74
2022/11/30 10:41:18;;;;;;;;;;;;;;;8.03;98.49;99803.94;10220780;23;19924;-74
2022/11/30 10:45:20;;;;;;;;;;;;;;;8.04;98.25;99800.50;10213566;23;19924;-75
2022/11/30 10:49:24;;;;;;;;;;;;;;;8.07;97.72;99788.47;10222418;23;19951;-75
2022/11/30 10:53:26;;;;;;;;;;;;;;;8.13;98.57;99791.16;10222224;23;20393;-76
2022/11/30 10:57:29;;;;;;;;;;;;;;;8.21;97.62;99798.97;10225026;23;19959;-75
2022/11/30 11:01:30;;;;;;;;;;;;;;;8.20;96.71;99789.50;10191307;23;20047;-74
2022/11/30 11:05:32;;;;;;;;;;;;;;;8.24;97.20;99783.50;10220778;23;19924;-74
2022/11/30 11:09:35;;;;;;;;;;;;;;;8.26;96.73;99788.69;10197505;23;19959;-75
2022/11/30 11:13:39;;;;;;;;;;;;;;;8.22;96.45;99782.63;10223662;23;20002;-74
2022/11/30 11:17:41;;;;;;;;;;;;;;;8.19;96.86;99785.16;10215132;23;20023;-75
2022/11/30 11:21:47;;;;;;;;;;;;;;;8.16;96.90;99780.84;10220704;23;20327;-74
2022/11/30 11:25:51;;;;;;;;;;;;;;;8.15;96.88;99776.50;10221003;23;19990;-75
2022/11/30 11:30:02;;;;;;;;;;;;;;;8.12;97.13;99786.84;10194193;23;19932;-74
2022/11/30 11:34:05;;;;;;;;;;;;;;;8.14;97.78;99779.94;10219681;23;19928;-74
2022/11/30 11:38:17;;;;;;;;;;;;;;;8.13;97.62;99783.38;10221641;23;19948;-75
2022/11/30 11:42:19;;;;;;;;;;;;;;;8.15;97.76;99792.03;10196128;23;19931;-75
2022/11/30 11:46:23;;;;;;;;;;;;;;;8.16;97.98;99785.13;10213387;23;20242;-74
2022/11/30 11:50:36;;;;;;;;;;;;;;;8.15;98.27;99786.00;10216774;23;19928;-75
2022/11/30 11:55:04;;;;;;;;;;;;;;;8.16;98.45;99785.13;10216828;23;19938;-75
2022/11/30 11:59:08;;;;;;;;;;;;;;;8.16;97.97;99775.66;10215856;23;19928;-75
2022/11/30 12:03:18;;;;;;;;;;;;;;;8.19;97.53;99773.09;10209557;23;19924;-74
2022/11/30 12:07:28;;;;;;;;;;;;;;;8.24;97.42;99772.28;10193972;23;20034;-74
2022/11/30 12:11:43;;;;;;;;;;;;;;;8.27;97.46;99767.16;10219035;23;19924;-75
2022/11/30 12:16:04;;;;;;;;;;;;;;;8.26;96.26;99768.88;10209090;23;19951;-75
2022/11/30 12:20:22;;;;;;;;;;;;;;;8.30;95.39;99769.78;10218074;23;20307;-75
2022/11/30 12:24:45;;;;;;;;;;;;;;;8.38;94.84;99769.03;10191547;23;19928;-75
2022/11/30 12:28:46;;;;;;;;;;;;;;;8.47;94.75;99765.69;10218207;23;20350;-75
2022/11/30 12:32:51;;;;;;;;;;;;;;;8.51;94.24;99767.44;10209387;23;19928;-75
2022/11/30 12:37:06;;;;;;;;;;;;;;;8.53;94.65;99767.47;10216794;23;19959;-75
2022/11/30 12:41:17;;;;;;;;;;;;;;;8.52;93.14;99769.19;10216560;23;20581;-75
2022/11/30 12:45:29;;;;;;;;;;;;;;;8.54;93.17;99769.19;10210761;23;20227;-76
2022/11/30 12:49:37;;;;;;;;;;;;;;;8.53;93.19;99763.16;10191470;23;20544;-76
2022/11/30 12:53:41;;;;;;;;;;;;;;;8.55;92.72;99770.91;10215205;23;19963;-76
2022/11/30 12:57:47;;;;;;;;;;;;;;;8.58;92.26;99763.19;10192750;23;20023;-76
2022/11/30 13:01:55;;;;;;;;;;;;;;;8.59;91.41;99775.28;10209275;23;20003;-75
2022/11/30 13:05:59;;;;;;;;;;;;;;;8.62;91.11;99764.97;10217335;23;20461;-76
2022/11/30 13:10:25;;;;;;;;;;;;;;;8.63;91.03;99761.53;10192197;23;19956;-76
2022/11/30 13:14:27;;;;;;;;;;;;;;;8.64;91.94;99760.69;10215761;23;20027;-76
2022/11/30 13:18:29;;;;;;;;;;;;;;;8.64;92.01;99761.53;10208025;23;19931;-76
2022/11/30 13:22:33;;;;;;;;;;;;;;;8.62;91.07;99759.78;10216733;23;19924;-76
2022/11/30 13:26:53;;;;;;;;;;;;;;;8.63;91.33;99757.22;10217102;23;19951;-75
2022/11/30 13:30:54;;;;;;;;;;;;;;;8.62;90.78;99759.78;10208542;23;19924;-76
2022/11/30 13:35:15;;;;;;;;;;;;;;;8.59;89.77;99751.97;10190587;23;20011;-76
2022/11/30 13:39:22;;;;;;;;;;;;;;;8.59;90.15;99752.84;10215653;23;19925;-76
2022/11/30 13:43:25;;;;;;;;;;;;;;;8.61;89.81;99753.72;10190523;23;20421;-76
2022/11/30 13:47:33;;;;;;;;;;;;;;;8.61;90.12;99752.84;10208763;23;19924;-75
2022/11/30 13:51:37;;;;;;;;;;;;;;;8.63;89.97;99752.03;10218099;23;19956;-75
2022/11/30 13:55:41;;;;;;;;;;;;;;;8.65;89.69;99747.75;10215865;23;19924;-76
2022/11/30 13:59:52;;;;;;;;;;;;;;;8.65;89.34;99757.22;10194370;23;20011;-75
2022/11/30 14:04:13;;;;;;;;;;;;;;;8.66;89.77;99751.19;10211108;23;19976;-76
2022/11/30 14:08:28;;;;;;;;;;;;;;;8.65;89.35;99752.06;10219913;23;19962;-75
2022/11/30 14:12:30;;;;;;;;;;;;;;;8.67;89.53;99753.78;10220214;23;20006;-76
2022/11/30 14:16:31;;;;;;;;;;;;;;;8.64;90.46;99761.53;10219353;23;20404;-77
2022/11/30 14:20:41;;;;;;;;;;;;;;;8.64;90.27;99758.94;10194022;23;20331;-75
2022/11/30 14:24:44;;;;;;;;;;;;;;;8.65;89.71;99760.69;10220815;23;20007;-78
2022/11/30 14:28:51;;;;;;;;;;;;;;;8.65;89.47;99759.81;10221557;23;20610;-76
2022/11/30 14:33:00;;;;;;;;;;;;;;;8.64;89.20;99758.09;10211135;23;19948;-76
2022/11/30 14:37:04;;;;;;;;;;;;;;;8.61;90.17;99758.91;10193864;23;20271;-75
2022/11/30 14:41:16;;;;;;;;;;;;;;;8.59;90.56;99764.91;10243343;23;19932;-77
2022/11/30 14:45:29;;;;;;;;;;;;;;;8.58;90.72;99763.19;10211449;23;19967;-75
2022/11/30 14:49:30;;;;;;;;;;;;;;;8.56;90.08;99770.06;10218705;23;19924;-76
2022/11/30 14:53:37;;;;;;;;;;;;;;;8.53;90.01;99760.56;10218524;23;19974;-76
2022/11/30 14:57:45;;;;;;;;;;;;;;;8.50;90.11;99764.84;10218396;23;19924;-76
2022/11/30 15:01:46;;;;;;;;;;;;;;;8.47;91.21;99765.69;10183619;23;20003;-75
2022/11/30 15:05:56;;;;;;;;;;;;;;;8.43;92.49;99761.31;10217536;23;19924;-76
2022/11/30 15:10:05;;;;;;;;;;;;;;;8.39;93.23;99764.72;10191761;23;19962;-75
2022/11/30 15:14:08;;;;;;;;;;;;;;;8.33;93.88;99760.31;10219759;23;20016;-74
2022/11/30 15:18:15;;;;;;;;;;;;;;;8.32;92.93;99773.25;10184701;23;20276;-74
2022/11/30 15:22:21;;;;;;;;;;;;;;;8.31;92.95;99769.78;10218117;23;19963;-74
2022/11/30 15:26:27;;;;;;;;;;;;;;;8.28;94.28;99767.19;10219226;23;20320;-75
2022/11/30 15:30:28;;;;;;;;;;;;;;;8.26;94.64;99768.88;10209907;23;19955;-74
2022/11/30 15:34:35;;;;;;;;;;;;;;;8.24;94.69;99769.69;10224107;23;19935;-75
2022/11/30 15:38:38;;;;;;;;;;;;;;;8.23;94.61;99771.41;10225624;23;19920;-74
2022/11/30 15:42:39;;;;;;;;;;;;;;;8.19;95.24;99772.25;10236950;23;19928;-74
2022/11/30 15:46:53;;;;;;;;;;;;;;;8.17;95.64;99771.34;10231228;23;19924;-75
2022/11/30 15:50:54;;;;;;;;;;;;;;;8.17;95.64;99771.34;10219751;23;20288;-74
2022/11/30 15:55:02;;;;;;;;;;;;;;;8.12;94.91;99784.25;10218840;23;19923;-74
2022/11/30 15:59:03;;;;;;;;;;;;;;;8.12;94.50;99789.41;10218861;23;19935;-75
2022/11/30 16:03:09;;;;;;;;;;;;;;;8.13;93.35;99785.97;10223358;23;19924;-75
2022/11/30 16:07:17;;;;;;;;;;;;;;;8.14;93.67;99786.84;10235143;23;19958;-74
2022/11/30 16:11:19;;;;;;;;;;;;;;;8.14;93.26;99787.72;10207124;23;19924;-75
2022/11/30 16:15:22;;;;;;;;;;;;;;;8.13;92.88;99793.75;10225989;23;19978;-74
2022/11/30 16:19:24;;;;;;;;;;;;;;;8.11;92.74;99787.69;10218549;23;19924;-74
2022/11/30 16:23:26;;;;;;;;;;;;;;;8.09;92.68;99791.97;10218169;23;19924;-74
2022/11/30 16:27:27;;;;;;;;;;;;;;;8.10;92.99;99798.00;10214483;23;19928;-75
2022/11/30 16:31:28;;;;;;;;;;;;;;;8.07;92.99;99809.16;10185656;23;19931;-74
2022/11/30 16:35:35;;;;;;;;;;;;;;;8.04;93.09;99805.69;10218479;23;20468;-74
2022/11/30 16:39:36;;;;;;;;;;;;;;;8.02;93.71;99810.84;10219463;23;19928;-74
2022/11/30 16:43:38;;;;;;;;;;;;;;;8.01;93.75;99808.22;10218591;23;20483;-77
2022/11/30 16:47:40;;;;;;;;;;;;;;;8.00;93.58;99822.00;10223764;23;19955;-74
2022/11/30 16:51:43;;;;;;;;;;;;;;;7.97;93.70;99833.19;10237162;23;19935;-76
2022/11/30 16:55:44;;;;;;;;;;;;;;;7.95;94.02;99832.31;10212074;23;19995;-74
2022/11/30 16:59:46;;;;;;;;;;;;;;;7.96;94.10;99836.63;10239942;23;19935;-74
2022/11/30 17:03:49;;;;;;;;;;;;;;;7.95;93.88;99839.19;10205737;23;19939;-74
2022/11/30 17:07:51;;;;;;;;;;;;;;;7.91;94.79;99838.28;10234912;23;19960;-74
2022/11/30 17:11:53;;;;;;;;;;;;;;;7.87;95.00;99836.47;10235962;23;20259;-75
2022/11/30 17:15:54;;;;;;;;;;;;;;;7.83;95.19;99835.56;10234769;23;20023;-75
2022/11/30 17:19:55;;;;;;;;;;;;;;;7.80;95.42;99848.47;10210902;23;19935;-75
2022/11/30 17:23:57;;;;;;;;;;;;;;;7.77;95.63;99847.56;10226172;23;19928;-74
2022/11/30 17:27:59;;;;;;;;;;;;;;;7.75;96.20;99844.97;10236435;23;20367;-74
2022/11/30 17:32:00;;;;;;;;;;;;;;;7.74;96.73;99844.94;10210521;23;20208;-74
2022/11/30 17:36:04;;;;;;;;;;;;;;;7.71;97.24;99844.88;10263131;23;20095;-74
2022/11/30 17:40:07;;;;;;;;;;;;;;;7.68;97.48;99850.88;10240293;23;20003;-74
2022/11/30 17:44:09;;;;;;;;;;;;;;;7.64;96.71;99854.25;10239656;23;19973;-74
2022/11/30 17:48:10;;;;;;;;;;;;;;;7.60;96.62;99860.25;10220443;23;20617;-74
2022/11/30 17:52:11;;;;;;;;;;;;;;;7.60;96.80;99859.38;10221064;23;19983;-74
2022/11/30 17:56:14;;;;;;;;;;;;;;;7.54;96.75;99854.97;10216496;23;20434;-74
2022/11/30 18:00:15;;;;;;;;;;;;;;;7.55;96.81;99861.88;10213003;23;19924;-74
2022/11/30 18:04:17;;;;;;;;;;;;;;;7.55;97.44;99861.88;10219525;23;20006;-74
2022/11/30 18:08:18;;;;;;;;;;;;;;;7.52;97.20;99861.81;10195379;23;20376;-74
2022/11/30 18:12:20;;;;;;;;;;;;;;;7.49;97.29;99854.88;10219901;23;19956;-73
2022/11/30 18:16:25;;;;;;;;;;;;;;;7.48;97.47;99860.03;10211436;23;19928;-74
2022/11/30 18:20:27;;;;;;;;;;;;;;;7.49;97.84;99869.53;10218322;23;20418;-74
2022/11/30 18:24:28;;;;;;;;;;;;;;;7.47;97.79;99872.09;10220600;23;20007;-74
2022/11/30 18:28:30;;;;;;;;;;;;;;;7.46;97.71;99875.53;10196554;23;19927;-74
2022/11/30 18:32:31;;;;;;;;;;;;;;;7.41;97.49;99881.47;10225621;23;19990;-74
2022/11/30 18:36:33;;;;;;;;;;;;;;;7.36;97.99;99884.00;10234297;23;19931;-74
2022/11/30 18:40:34;;;;;;;;;;;;;;;7.39;98.33;99885.75;10235300;23;19936;-75
2022/11/30 18:44:36;;;;;;;;;;;;;;;7.38;98.54;99878.84;10236369;23;19955;-74
2022/11/30 18:48:38;;;;;;;;;;;;;;;7.38;98.12;99886.59;10233637;23;20011;-75
2022/11/30 18:52:39;;;;;;;;;;;;;;;7.39;98.47;99891.78;10215432;23;19935;-74
2022/11/30 18:56:40;;;;;;;;;;;;;;;7.37;97.91;99892.59;10242557;23;19967;-74
2022/11/30 19:00:42;;;;;;;;;;;;;;;7.35;98.13;99900.31;10238502;23;19924;-74
2022/11/30 19:04:43;;;;;;;;;;;;;;;7.30;97.76;99901.06;10240804;23;19951;-74
2022/11/30 19:08:46;;;;;;;;;;;;;;;7.30;97.59;99906.25;10243396;23;19924;-74
2022/11/30 19:12:47;;;;;;;;;;;;;;;7.26;97.72;99906.19;10244368;23;19928;-74
2022/11/30 19:16:50;;;;;;;;;;;;;;;7.20;97.81;99911.25;10227481;23;19999;-74
2022/11/30 19:20:51;;;;;;;;;;;;;;;7.22;98.18;99908.72;10229449;23;19976;-74
2022/11/30 19:24:52;;;;;;;;;;;;;;;7.18;98.27;99910.38;10205833;23;19924;-74
2022/11/30 19:28:54;;;;;;;;;;;;;;;7.13;98.49;99906.81;10235773;23;19925;-74
2022/11/30 19:32:56;;;;;;;;;;;;;;;7.07;98.92;99914.47;10201297;23;20335;-74
2022/11/30 19:36:57;;;;;;;;;;;;;;;7.06;99.28;99906.69;10208037;23;19928;-74
2022/11/30 19:41:03;;;;;;;;;;;;;;;7.09;99.56;99912.78;10229640;23;19920;-74
2022/11/30 19:45:04;;;;;;;;;;;;;;;7.13;99.57;99914.56;10202331;23;20074;-74
2022/11/30 19:49:07;;;;;;;;;;;;;;;7.14;99.49;99913.72;10229587;23;19960;-74
2022/11/30 19:53:08;;;;;;;;;;;;;;;7.14;99.05;99912.84;10227940;23;19924;-75
2022/11/30 19:57:10;;;;;;;;;;;;;;;7.14;98.78;99918.00;10229341;23;19994;-75
2022/11/30 20:01:12;;;;;;;;;;;;;;;7.12;98.79;99919.69;10228545;23;19986;-74
2022/11/30 20:05:14;;;;;;;;;;;;;;;7.12;99.24;99925.75;10227609;23;19924;-75
2022/11/30 20:09:15;;;;;;;;;;;;;;;7.11;99.30;99913.66;10229841;23;20003;-75
2022/11/30 20:13:16;;;;;;;;;;;;;;;7.09;99.41;99917.94;10231665;23;19935;-75
2022/11/30 20:17:18;;;;;;;;;;;;;;;7.11;99.42;99917.97;10228137;23;19932;-74
2022/11/30 20:21:29;;;;;;;;;;;;;;;7.09;99.65;99914.50;10228096;23;19955;-75
2022/11/30 20:25:31;;;;;;;;;;;;;;;7.09;99.49;99914.50;10230189;23;20413;-74
2022/11/30 20:29:33;;;;;;;;;;;;;;;7.09;99.50;99914.50;10229853;23;19924;-75
2022/11/30 20:33:35;;;;;;;;;;;;;;;7.09;99.33;99915.34;10212543;23;19924;-75
2022/11/30 20:37:36;;;;;;;;;;;;;;;7.07;99.30;99913.59;10217694;23;19978;-75
2022/11/30 20:41:38;;;;;;;;;;;;;;;7.08;99.32;99918.78;10190573;23;19928;-75
2022/11/30 20:45:39;;;;;;;;;;;;;;;7.06;99.09;99917.03;10217628;23;20393;-75
2022/11/30 20:49:40;;;;;;;;;;;;;;;7.00;98.65;99922.91;10220502;23;19960;-74
2022/11/30 20:53:42;;;;;;;;;;;;;;;7.00;99.12;99922.91;10192045;23;19932;-74
2022/11/30 20:57:45;;;;;;;;;;;;;;;6.98;98.89;99920.31;10193832;23;20058;-74
2022/11/30 21:01:46;;;;;;;;;;;;;;;6.99;98.85;99923.75;10218269;23;19924;-74
2022/11/30 21:05:48;;;;;;;;;;;;;;;6.98;98.90;99924.59;10191818;23;19924;-74
2022/11/30 21:09:49;;;;;;;;;;;;;;;6.96;98.84;99923.72;10219805;23;20294;-74